Flight Track Log - Related Links

Times and Time Zones

All times are in EDT time to prevent confusion due to time zone crossing. See the N884FT flight status page for this flight to view local times or setup timezone preferences in your user account.

Time Position Orientation Groundspeed Altitude Reporting Facility
EDT Latitude Longitude Course Direction KTS MPH feet Rate Location/Type
Sun 03:38:26 PM 27.0494 -80.3528 343° North 149 171 6,000  Level Miami Center
Sun 03:39:27 PM 27.0950 -80.3633 348° North 154 177 5,700 -400 Descending Miami Center
Sun 03:40:00 PM 27.0793 -80.2454 341° North  Level FlightAware Approximate
Sun 03:40:26 PM 27.1408 -80.3742 348° North 159 183 5,200  Level Miami Center
Sun 03:41:00 PM 27.1143 -80.2592 341° North  Level FlightAware Approximate
Sun 03:41:26 PM 27.1864 -80.3850 348° North 159 183 5,000  Level Miami Center
Sun 03:42:00 PM 27.1496 -80.2721 343° North  Level FlightAware Approximate
Sun 03:42:26 PM 27.2217 -80.3931 349° North 159 183 5,000  Level Miami Center
Sun 03:43:26 PM 27.2611 -80.4083 341° North 154 177 5,000  Level Miami Center
Sun 03:44:26 PM 27.3067 -80.4189 348° North 147 169 5,000  Level Miami Center
Sun 03:45:26 PM 27.3461 -80.4319 344° North 147 169 5,000  Level Miami Center
Sun 03:46:26 PM 27.3856 -80.4425 347° North 147 169 5,000  Level Miami Center
Sun 03:47:26 PM 27.4208 -80.4506 349° North 142 163 5,000  Level Miami Center
Sun 03:48:26 PM 27.4581 -80.4633 343° North 142 163 5,000  Level Miami Center
Sun 03:49:26 PM 27.5017 -80.4764 345° North 142 163 5,000  Level Miami Center
Sun 03:50:26 PM 27.5408 -80.4894 344° North 142 163 5,000  Level Miami Center
Sun 03:51:26 PM 27.5761 -80.4975 349° North 142 163 5,000 50 Level Miami Center
Sun 03:52:26 PM 27.6156 -80.5083 346° North 142 163 5,100 -528 Climbing Miami Center
Sun 03:54:39 PM 27.7167 -80.5333 348° North 153 176 3,300 -653 Descending Orlando TRACON
Sun 03:55:39 PM 27.7500 -80.5500 336° Northwest 139 160 3,000 -104 Descending Orlando TRACON
Sun 03:56:34 PM 27.7667 -80.5500 360° North 111 128 3,100 50 Climbing Orlando TRACON
Sun 03:57:39 PM 27.8167 -80.5667 344° North 127 146 3,100 48 Level Orlando TRACON
Sun 03:58:39 PM 27.8500 -80.5833 336° Northwest 134 154 3,200 52 Climbing Orlando TRACON
Sun 03:59:34 PM 27.8833 -80.6000 336° Northwest 128 147 3,200  Level Orlando TRACON
Sun 04:00:34 PM 27.9167 -80.6000 360° North 135 155 3,200 -150 Level Orlando TRACON
Sun 04:01:34 PM 27.9500 -80.6333 319° Northwest 142 163 2,900 -300 Descending Orlando TRACON
Sun 04:02:34 PM 27.9833 -80.6500 336° Northwest 142 163 2,600 -500 Descending Orlando TRACON
Sun 04:03:34 PM 28.0167 -80.6667 336° Northwest 137 158 1,900 -524 Descending Orlando TRACON
Sun 04:04:40 PM 28.0333 -80.7000 300° West 125 144 1,500 -190 Descending Orlando TRACON
Sun 04:05:40 PM 28.0500 -80.7000 360° North 100 115 1,500 -150 Level Orlando TRACON
Sun 04:06:40 PM 28.0833 -80.7000 360° North 90 104 1,200 -400 Descending Orlando TRACON
Sun 04:07:40 PM 28.1000 -80.7000 360° North 72 83 700 -500 Descending Orlando TRACON

Login

Don't have an account? Register now (free) for customized features, flight alerts, and more!